Baie-Des-Sables, Canada
Current Conditions -  °F | °C
As of 3:00 AM on Sunday 23 Nov 2014 (Local Time) from CYYY Reporting Station
Light Snow Light Snow  
Wind Chill: 24°   Ceiling: 3000
Heat Index: 34°   Visibility: 15mi
Dew Point: 27°   Wind: 15mph
Humidity: 75%   Direction: 230°SW
Pressure: 29.71"   Gusts: 23mph
Location:  48.72°N, 67.87°W
Report Text: CYYY 230800Z 23013G20KT 15SM -SN OVC030 01/M03 A2971 RMK SC8 SLP065
Loading
Personal Weather Stations






























Interactive Weather Map New forecast layout! Learn more

10-Day Weather Forecast

Advertisements
Track Severe Weather on mobile